Time;durP1;ratioP1;P1;durP2;ratioP2;P2;SDS_P1;SDS_P2;PMS_P1;PMS_P2;Temp;Humidity;BMP_temperature;BMP_pressure;BME280_temperature;BME280_humidity;BME280_pressure;Samples;Min_cycle;Max_cycle;Signal;HPM_P1;HPM_P2
2023/06/12 00:01:52;;;;;;;4.10;1.40;;;;;;;14.01;62.96;100601.80;105341;1254;60549;-50
2023/06/12 00:04:19;;;;;;;4.80;1.60;;;;;;;14.05;62.78;100597.97;105423;1257;64999;-52
2023/06/12 00:06:46;;;;;;;6.00;1.80;;;;;;;14.10;62.84;100595.89;109314;1254;61729;-52
2023/06/12 00:09:12;;;;;;;5.50;1.70;;;;;;;14.13;62.51;100593.66;109300;1254;64235;-53
2023/06/12 00:11:40;;;;;;;7.10;1.80;;;;;;;14.13;62.09;100590.27;109320;1254;58235;-52
2023/06/12 00:14:07;;;;;;;5.60;2.30;;;;;;;14.12;62.13;100589.17;109261;1253;58051;-51
2023/06/12 00:16:33;;;;;;;4.10;1.60;;;;;;;14.10;62.24;100587.40;109280;1254;65079;-52
2023/06/12 00:19:01;;;;;;;5.80;1.70;;;;;;;14.12;62.23;100579.83;108177;1254;60317;-50
2023/06/12 00:21:28;;;;;;;6.70;1.90;;;;;;;14.17;62.15;100576.76;105666;1257;63855;-51
2023/06/12 00:23:54;;;;;;;4.40;1.70;;;;;;;14.17;61.89;100575.35;105495;1260;60323;-52
2023/06/12 00:26:21;;;;;;;3.70;1.40;;;;;;;14.13;61.94;100577.03;105536;1258;60469;-50
2023/06/12 00:28:48;;;;;;;3.90;1.50;;;;;;;14.09;62.02;100574.84;105675;1254;65181;-50
2023/06/12 00:31:15;;;;;;;5.80;1.80;;;;;;;14.05;62.16;100577.13;105648;1255;61696;-52
2023/06/12 00:33:42;;;;;;;6.30;1.30;;;;;;;14.08;62.45;100578.06;105441;1259;64362;-51
2023/06/12 00:36:09;;;;;;;6.40;1.90;;;;;;;14.12;62.31;100579.82;105670;1255;60459;-51
2023/06/12 00:38:35;;;;;;;8.00;1.90;;;;;;;14.12;61.96;100580.19;105630;1254;60466;-50
2023/06/12 00:41:02;;;;;;;4.30;1.60;;;;;;;14.09;62.08;100578.13;105733;1256;65203;-50
2023/06/12 00:43:29;;;;;;;5.60;2.00;;;;;;;14.07;61.95;100578.38;105613;1254;61681;-50
2023/06/12 00:45:56;;;;;;;5.40;2.10;;;;;;;14.03;61.76;100574.52;105585;1254;64013;-50
2023/06/12 00:48:23;;;;;;;8.70;1.60;;;;;;;14.01;61.76;100571.65;105434;1260;60564;-51
2023/06/12 00:50:52;;;;;;;4.90;2.20;;;;;;;14.03;61.83;100572.23;105453;1254;60562;-51
2023/06/12 00:53:20;;;;;;;5.30;2.20;;;;;;;14.00;61.85;100571.42;105526;1254;63759;-51
2023/06/12 00:55:47;;;;;;;4.80;1.60;;;;;;;13.97;62.28;100571.38;105495;1260;61496;-51
2023/06/12 00:58:16;;;;;;;4.80;1.80;;;;;;;13.95;62.42;100571.32;106003;1255;63894;-51
2023/06/12 01:00:43;;;;;;;5.60;1.60;;;;;;;13.94;62.67;100571.38;105506;1254;61181;-51
2023/06/12 01:03:11;;;;;;;6.30;2.00;;;;;;;13.98;62.53;100572.52;106102;1253;60437;-51
2023/06/12 01:05:42;;;;;;;5.70;1.70;;;;;;;14.01;62.36;100571.67;105697;1254;63881;-51
2023/06/12 01:08:31;;;;;;;5.50;2.10;;;;;;;14.00;62.15;100569.17;106606;1254;61474;-50
2023/06/12 01:11:08;;;;;;;4.40;1.60;;;;;;;13.97;62.39;100568.52;105668;1257;64017;-51
2023/06/12 01:13:35;;;;;;;4.80;2.00;;;;;;;13.95;62.67;100573.95;105618;1254;60526;-51
2023/06/12 01:16:02;;;;;;;8.00;1.70;;;;;;;13.99;62.66;100568.56;105689;1257;60462;-50
2023/06/12 01:18:29;;;;;;;4.50;1.80;;;;;;;14.02;62.26;100567.50;105692;1254;63789;-50
2023/06/12 01:20:58;;;;;;;5.60;1.60;;;;;;;14.05;62.58;100563.32;105642;1254;61344;-50
2023/06/12 01:23:39;;;;;;;3.70;1.60;;;;;;;14.07;62.90;100560.30;105430;1260;64020;-51
2023/06/12 01:26:18;;;;;;;4.90;2.20;;;;;;;14.07;62.71;100560.35;105498;1255;60468;-51
2023/06/12 01:29:10;;;;;;;4.70;1.60;;;;;;;14.06;62.92;100560.95;105455;1259;60424;-51
2023/06/12 01:31:43;;;;;;;6.60;1.90;;;;;;;14.11;63.11;100558.58;105488;1257;65322;-50
2023/06/12 01:34:16;;;;;;;5.30;1.60;;;;;;;14.17;62.54;100562.63;105664;1260;60901;-51
2023/06/12 01:36:49;;;;;;;6.70;1.80;;;;;;;14.20;62.39;100564.48;105636;1255;64015;-51
2023/06/12 01:39:16;;;;;;;6.30;2.00;;;;;;;14.18;62.16;100560.07;105205;1254;60458;-51
2023/06/12 01:41:42;;;;;;;5.30;1.90;;;;;;;14.14;61.99;100563.09;105389;1258;60482;-51
2023/06/12 01:44:10;;;;;;;5.50;1.80;;;;;;;14.09;62.30;100559.08;105232;1259;65038;-51
2023/06/12 01:46:39;;;;;;;4.40;1.70;;;;;;;14.09;62.30;100557.85;105409;1255;61654;-51
2023/06/12 01:49:06;;;;;;;4.90;2.00;;;;;;;14.11;62.26;100560.46;105316;1260;64047;-51
2023/06/12 01:51:35;;;;;;;6.30;2.00;;;;;;;14.12;62.34;100559.90;105344;1254;60444;-51
2023/06/12 01:54:03;;;;;;;7.30;2.20;;;;;;;14.12;62.67;100563.60;105429;1254;60469;-51
2023/06/12 01:56:30;;;;;;;5.80;2.10;;;;;;;14.12;62.65;100562.36;105620;1256;65282;-51
2023/06/12 01:58:57;;;;;;;4.50;1.60;;;;;;;14.11;62.35;100563.64;105625;1260;61486;-51
2023/06/12 02:01:34;;;;;;;8.70;2.10;;;;;;;14.13;62.20;100561.71;105631;1254;63934;-51
2023/06/12 02:04:02;;;;;;;4.60;1.90;;;;;;;14.15;62.23;100564.39;105655;1254;60644;-49
2023/06/12 02:06:30;;;;;;;6.60;2.40;;;;;;;14.14;62.08;100560.73;105584;1254;60460;-52
2023/06/12 02:08:57;;;;;;;5.60;1.80;;;;;;;14.12;62.21;100561.10;106834;1253;65140;-49
2023/06/12 02:11:24;;;;;;;4.30;1.70;;;;;;;14.10;62.43;100558.46;105618;1254;61343;-52
2023/06/12 02:13:53;;;;;;;3.90;1.60;;;;;;;14.08;62.30;100557.10;105910;1255;64095;-51
2023/06/12 02:16:21;;;;;;;4.10;1.50;;;;;;;14.10;62.19;100556.38;105657;1254;60533;-50
2023/06/12 02:18:49;;;;;;;4.70;1.60;;;;;;;14.15;62.05;100558.08;105911;1257;60460;-50
2023/06/12 02:21:15;;;;;;;5.30;2.00;;;;;;;14.14;61.92;100561.27;105797;1254;65199;-51
2023/06/12 02:23:42;;;;;;;5.90;2.00;;;;;;;14.13;62.37;100561.75;105411;1254;62515;-49
2023/06/12 02:26:09;;;;;;;5.10;1.90;;;;;;;14.10;62.23;100559.74;105536;1257;63801;-51
2023/06/12 02:28:40;;;;;;;4.70;1.70;;;;;;;14.07;62.03;100559.85;105572;1254;60407;-50
2023/06/12 02:31:07;;;;;;;4.70;1.70;;;;;;;14.08;62.17;100559.55;105485;1254;61785;-51
2023/06/12 02:33:37;;;;;;;6.10;1.80;;;;;;;14.13;62.37;100558.76;105544;1257;65025;-50
2023/06/12 02:36:07;;;;;;;4.70;1.90;;;;;;;14.14;62.13;100563.23;105631;1254;61605;-51
2023/06/12 02:38:34;;;;;;;5.90;1.80;;;;;;;14.13;62.29;100565.77;105610;1259;62699;-50
2023/06/12 02:41:01;;;;;;;5.70;1.80;;;;;;;14.12;62.32;100567.64;105646;1254;60451;-51
2023/06/12 02:43:28;;;;;;;6.90;1.80;;;;;;;14.11;62.31;100565.48;105579;1256;60568;-50
2023/06/12 02:45:55;;;;;;;5.30;1.90;;;;;;;14.14;62.18;100561.52;105629;1257;65243;-50
2023/06/12 02:48:23;;;;;;;4.80;1.80;;;;;;;14.19;62.27;100567.23;105523;1255;62048;-50
2023/06/12 02:50:49;;;;;;;6.10;1.70;;;;;;;14.22;62.30;100561.79;105607;1254;60532;-50
2023/06/12 02:53:18;;;;;;;6.30;1.70;;;;;;;14.24;62.22;100557.91;105547;1253;60539;-51
2023/06/12 02:55:45;;;;;;;10.10;2.00;;;;;;;14.25;62.22;100560.27;105788;1254;60555;-50
2023/06/12 02:58:12;;;;;;;5.70;1.90;;;;;;;14.25;62.39;100558.98;105707;1256;65298;-52
2023/06/12 03:00:39;;;;;;;4.00;1.80;;;;;;;14.30;62.54;100555.06;105785;1254;61552;-51
2023/06/12 03:03:07;;;;;;;7.70;1.70;;;;;;;14.37;62.28;100556.57;107395;1254;64518;-51
2023/06/12 03:05:36;;;;;;;7.30;2.40;;;;;;;14.40;62.01;100556.21;105686;1259;60475;-51
2023/06/12 03:08:03;;;;;;;7.90;1.60;;;;;;;14.40;61.62;100561.02;105728;1254;60533;-51
2023/06/12 03:10:31;;;;;;;4.90;1.80;;;;;;;14.40;61.98;100559.63;105560;1257;65519;-49
2023/06/12 03:12:58;;;;;;;4.30;1.80;;;;;;;14.42;62.37;100559.09;105402;1255;61721;-51
2023/06/12 03:15:27;;;;;;;5.30;1.80;;;;;;;14.49;62.13;100556.25;105566;1254;63992;-51
2023/06/12 03:17:54;;;;;;;5.40;2.00;;;;;;;14.57;62.02;100555.59;105697;1254;60561;-52
2023/06/12 03:20:24;;;;;;;7.60;1.80;;;;;;;14.60;61.77;100549.30;105655;1254;60447;-50
2023/06/12 03:22:52;;;;;;;4.60;1.70;;;;;;;14.62;61.47;100549.05;106301;1257;65043;-49
2023/06/12 03:25:19;;;;;;;5.20;1.90;;;;;;;14.64;61.35;100548.41;105602;1259;61379;-50
2023/06/12 03:27:46;;;;;;;6.40;2.00;;;;;;;14.64;61.22;100550.27;105620;1254;64033;-51
2023/06/12 03:30:13;;;;;;;5.40;1.90;;;;;;;14.63;61.29;100548.25;105525;1254;60417;-50
2023/06/12 03:32:41;;;;;;;6.20;1.90;;;;;;;14.68;61.17;100547.44;105513;1259;60529;-50
2023/06/12 03:35:09;;;;;;;4.40;1.80;;;;;;;14.75;61.00;100551.39;105704;1255;65125;-50
2023/06/12 03:37:37;;;;;;;4.90;2.00;;;;;;;14.80;60.98;100547.40;105621;1254;61914;-50
2023/06/12 03:40:08;;;;;;;4.80;1.80;;;;;;;14.82;60.66;100543.15;105450;1253;63894;-50
2023/06/12 03:42:38;;;;;;;5.20;1.80;;;;;;;14.83;60.30;100546.44;105602;1257;60562;-52
2023/06/12 03:45:06;;;;;;;6.40;1.70;;;;;;;14.80;60.29;100551.50;105583;1253;60527;-54
2023/06/12 03:47:32;;;;;;;4.60;1.80;;;;;;;14.77;60.69;100555.80;105548;1256;63623;-51
2023/06/12 03:50:00;;;;;;;5.70;2.30;;;;;;;14.83;60.68;100556.34;105531;1254;61680;-53
2023/06/12 03:52:28;;;;;;;4.90;1.60;;;;;;;14.90;60.39;100552.45;105503;1254;63722;-53
2023/06/12 03:54:55;;;;;;;5.40;2.10;;;;;;;14.93;60.38;100553.05;105579;1254;60328;-52
2023/06/12 03:57:22;;;;;;;5.40;2.00;;;;;;;14.93;60.48;100556.20;105546;1254;60476;-53
2023/06/12 03:59:49;;;;;;;5.50;1.80;;;;;;;14.96;60.50;100557.73;105595;1257;65033;-51
2023/06/12 04:02:16;;;;;;;5.50;1.90;;;;;;;14.99;60.53;100559.33;105508;1254;61762;-52
2023/06/12 04:04:43;;;;;;;6.90;2.30;;;;;;;15.02;60.33;100554.61;105375;1254;63926;-50
2023/06/12 04:07:13;;;;;;;4.90;1.80;;;;;;;15.01;60.53;100554.05;105364;1256;60454;-53
2023/06/12 04:09:40;;;;;;;5.00;1.90;;;;;;;15.01;60.57;100558.27;105605;1254;60559;-52
2023/06/12 04:12:09;;;;;;;5.70;1.80;;;;;;;15.00;60.41;100557.64;105503;1254;64170;-51
2023/06/12 04:14:35;;;;;;;4.70;1.80;;;;;;;15.00;60.45;100558.18;105509;1254;61928;-51
2023/06/12 04:17:06;;;;;;;4.30;1.70;;;;;;;15.01;60.09;100560.58;105343;1254;63958;-52
2023/06/12 04:19:35;;;;;;;5.20;1.90;;;;;;;15.06;60.02;100564.70;105351;1254;60457;-52
2023/06/12 04:22:03;;;;;;;4.70;1.60;;;;;;;15.16;59.67;100569.09;105589;1258;60457;-52
2023/06/12 04:24:31;;;;;;;5.00;1.80;;;;;;;15.22;59.59;100570.22;105489;1257;65874;-51
2023/06/12 04:27:01;;;;;;;5.40;2.00;;;;;;;15.29;59.87;100569.73;105416;1255;61393;-53
2023/06/12 04:29:32;;;;;;;5.00;2.10;;;;;;;15.35;59.40;100565.75;105420;1257;62749;-51
2023/06/12 04:31:59;;;;;;;4.60;1.80;;;;;;;15.39;59.20;100566.85;105644;1254;60475;-51
2023/06/12 04:34:27;;;;;;;4.50;1.90;;;;;;;15.47;58.71;100568.33;105402;1254;60620;-50
2023/06/12 04:36:54;;;;;;;6.80;1.90;;;;;;;15.53;58.59;100572.89;105980;1253;65730;-51
2023/06/12 04:39:22;;;;;;;6.50;1.70;;;;;;;15.61;58.21;100574.46;105563;1254;61499;-51
2023/06/12 04:41:51;;;;;;;4.80;1.80;;;;;;;15.69;58.10;100575.08;105558;1255;64006;-51
2023/06/12 04:44:19;;;;;;;6.60;2.00;;;;;;;15.77;58.27;100579.42;105639;1254;60473;-51
2023/06/12 04:46:46;;;;;;;8.60;1.60;;;;;;;15.84;57.85;100577.70;105434;1255;60530;-51
2023/06/12 04:49:13;;;;;;;5.00;2.10;;;;;;;15.86;57.25;100576.21;101743;1257;5129606;-50
2023/06/12 05:03:23;;;;;;;5.10;1.40;;;;;;;15.99;56.79;100583.02;102973;1287;605114;-50
2023/06/12 05:05:55;;;;;;;4.80;2.10;;;;;;;16.46;55.03;100589.27;104334;1267;128578;-50
2023/06/12 05:08:24;;;;;;;4.80;1.70;;;;;;;16.44;55.24;100594.15;104947;1267;59264;-50
2023/06/12 05:10:52;;;;;;;5.70;1.70;;;;;;;16.42;55.56;100590.66;104583;1272;63391;-51
2023/06/12 05:13:19;;;;;;;6.40;1.90;;;;;;;16.39;55.27;100590.04;104525;1273;60339;-50
2023/06/12 05:15:47;;;;;;;4.90;1.60;;;;;;;16.33;55.37;100592.71;104421;1267;63735;-50
2023/06/12 05:18:15;;;;;;;7.50;1.70;;;;;;;16.29;55.27;100589.80;104729;1270;59662;-50
2023/06/12 05:20:42;;;;;;;5.20;2.10;;;;;;;16.25;55.46;100590.56;104417;1267;60943;-49
2023/06/12 05:23:10;;;;;;;7.30;1.60;;;;;;;16.24;55.64;100590.20;104436;1267;63333;-49
2023/06/12 05:25:38;;;;;;;5.60;1.80;;;;;;;16.28;55.79;100588.30;104434;1269;61351;-51
2023/06/12 05:28:05;;;;;;;9.80;2.00;;;;;;;16.32;55.45;100586.81;104896;1268;63713;-51
2023/06/12 05:30:33;;;;;;;7.40;2.00;;;;;;;16.32;55.02;100587.36;104519;1269;59727;-50
2023/06/12 05:33:04;;;;;;;4.50;1.90;;;;;;;16.30;55.33;100588.09;104557;1272;59661;-49
2023/06/12 05:35:32;;;;;;;5.90;1.50;;;;;;;16.30;55.27;100589.20;104527;1266;64165;-51
2023/06/12 05:37:59;;;;;;;3.90;1.50;;;;;;;16.29;55.28;100591.45;104652;1271;61484;-55
2023/06/12 05:40:28;;;;;;;6.20;1.60;;;;;;;16.28;55.14;100589.20;105228;1267;63720;-51
2023/06/12 05:42:59;;;;;;;8.90;2.00;;;;;;;16.26;55.32;100588.52;104570;1267;59798;-51
2023/06/12 05:45:27;;;;;;;5.00;1.70;;;;;;;16.21;55.05;100591.04;105913;1268;59669;-51
2023/06/12 05:47:55;;;;;;;7.30;2.00;;;;;;;16.15;55.33;100592.63;104508;1267;64236;-50
2023/06/12 05:50:23;;;;;;;6.40;1.80;;;;;;;16.11;55.46;100596.06;104394;1269;61386;-49
2023/06/12 05:52:52;;;;;;;6.20;1.60;;;;;;;16.10;55.55;100592.73;104243;1267;64298;-49
2023/06/12 05:55:20;;;;;;;6.10;1.90;;;;;;;16.11;55.23;100594.64;104468;1267;59862;-50
2023/06/12 05:57:47;;;;;;;5.00;1.60;;;;;;;16.08;55.44;100594.36;104546;1267;59730;-51
2023/06/12 06:00:21;;;;;;;4.40;1.70;;;;;;;16.08;55.73;100592.50;104548;1267;64136;-50
2023/06/12 06:02:50;;;;;;;5.70;2.00;;;;;;;16.07;55.52;100589.38;105474;1268;61461;-50
2023/06/12 06:05:30;;;;;;;8.60;2.50;;;;;;;16.05;55.58;100589.42;104800;1270;63833;-50
2023/06/12 06:08:01;;;;;;;6.70;1.80;;;;;;;15.99;55.79;100587.52;104699;1267;59757;-50
2023/06/12 06:10:29;;;;;;;4.90;2.10;;;;;;;15.93;55.67;100588.55;105756;1269;59550;-50
2023/06/12 06:12:57;;;;;;;6.90;2.30;;;;;;;15.87;55.74;100588.70;104509;1267;62821;-50
2023/06/12 06:15:26;;;;;;;6.60;1.60;;;;;;;15.80;55.89;100585.82;104497;1272;60181;-50
2023/06/12 06:17:53;;;;;;;4.90;1.70;;;;;;;15.76;56.14;100592.09;104487;1267;62454;-50
2023/06/12 06:20:21;;;;;;;6.00;2.30;;;;;;;15.78;56.71;100596.67;104645;1265;59805;-51
2023/06/12 06:22:50;;;;;;;7.00;2.10;;;;;;;15.82;56.34;100594.13;104797;1266;59575;-48
2023/06/12 06:25:17;;;;;;;4.40;1.70;;;;;;;15.84;56.23;100596.96;104770;1264;64617;-49
2023/06/12 06:27:45;;;;;;;5.60;2.30;;;;;;;15.90;56.24;100598.34;104619;1268;60213;-50
2023/06/12 06:30:13;;;;;;;4.50;1.90;;;;;;;15.91;56.54;100594.87;104465;1266;64254;-50
2023/06/12 06:32:41;;;;;;;7.40;2.00;;;;;;;15.96;56.37;100597.67;104721;1266;59646;-49
2023/06/12 06:35:09;;;;;;;5.70;2.00;;;;;;;15.96;56.15;100598.94;104731;1268;59568;-49
2023/06/12 06:37:37;;;;;;;4.20;1.70;;;;;;;15.97;55.92;100598.14;104900;1265;64134;-49
2023/06/12 06:40:06;;;;;;;7.70;2.30;;;;;;;15.96;55.92;100599.27;104747;1268;61321;-56
2023/06/12 06:42:33;;;;;;;7.20;2.40;;;;;;;16.00;56.27;100601.61;104646;1268;63957;-57
2023/06/12 06:45:04;;;;;;;7.70;2.00;;;;;;;16.06;55.95;100603.06;104403;1270;60031;-58
2023/06/12 06:47:33;;;;;;;4.60;2.00;;;;;;;16.14;55.51;100603.19;104571;1264;59788;-58
2023/06/12 06:50:01;;;;;;;3.90;1.60;;;;;;;16.19;55.61;100601.08;104772;1269;64204;-58
2023/06/12 06:52:29;;;;;;;5.70;2.10;;;;;;;16.23;55.52;100597.19;104592;1265;61300;-56
2023/06/12 06:54:57;;;;;;;6.00;2.10;;;;;;;16.28;55.67;100595.04;104978;1264;63748;-58
2023/06/12 06:57:30;;;;;;;5.20;1.80;;;;;;;16.35;55.08;100591.70;104708;1264;59708;-57
2023/06/12 06:59:57;;;;;;;4.20;1.90;;;;;;;16.39;54.98;100594.45;104876;1264;59750;-56
2023/06/12 07:02:25;;;;;;;5.50;2.20;;;;;;;16.43;54.96;100595.83;104447;1265;64111;-56
2023/06/12 07:04:53;;;;;;;7.20;2.30;;;;;;;16.46;54.89;100597.89;104648;1265;61832;-55
2023/06/12 07:07:21;;;;;;;4.80;1.80;;;;;;;16.48;55.03;100600.48;104482;1267;63826;-57
2023/06/12 07:09:49;;;;;;;6.70;2.20;;;;;;;16.54;55.08;100598.47;104394;1264;59718;-51
2023/06/12 07:12:17;;;;;;;8.50;2.10;;;;;;;16.62;54.77;100596.22;104648;1268;59641;-49
2023/06/12 07:14:44;;;;;;;4.60;1.70;;;;;;;16.71;54.76;100597.10;104503;1268;64673;-50
2023/06/12 07:17:14;;;;;;;6.50;2.60;;;;;;;16.84;54.17;100601.27;105041;1264;61836;-50
2023/06/12 07:19:42;;;;;;;6.50;2.10;;;;;;;16.93;53.83;100603.12;104635;1265;63687;-50
2023/06/12 07:22:09;;;;;;;12.10;2.20;;;;;;;16.98;53.89;100605.98;104492;1270;59717;-51
2023/06/12 07:24:37;;;;;;;7.70;2.00;;;;;;;17.05;54.07;100612.15;104662;1265;59770;-51
2023/06/12 07:27:05;;;;;;;4.80;2.00;;;;;;;17.10;53.60;100612.87;104615;1267;64597;-50
2023/06/12 07:29:33;;;;;;;4.00;1.90;;;;;;;17.13;53.80;100613.64;104475;1265;61335;-51
2023/06/12 07:32:00;;;;;;;6.00;2.60;;;;;;;17.18;54.20;100614.73;104549;1266;64257;-50
2023/06/12 07:34:28;;;;;;;5.90;2.30;;;;;;;17.20;53.91;100614.57;104486;1268;59746;-50
2023/06/12 07:36:56;;;;;;;7.00;2.10;;;;;;;17.10;53.68;100612.01;104551;1269;59574;-51
2023/06/12 07:39:24;;;;;;;5.90;2.40;;;;;;;17.03;53.90;100612.44;104482;1265;64111;-50
2023/06/12 07:41:51;;;;;;;4.50;2.10;;;;;;;17.02;54.47;100608.25;104574;1270;60167;-49
2023/06/12 07:44:20;;;;;;;5.10;2.00;;;;;;;17.07;54.84;100609.17;104652;1265;63699;-51
2023/06/12 07:46:47;;;;;;;6.50;2.00;;;;;;;17.17;54.72;100610.44;104582;1266;59822;-50
2023/06/12 07:49:16;;;;;;;7.10;1.80;;;;;;;17.27;54.06;100605.33;104546;1266;59583;-50
2023/06/12 07:51:45;;;;;;;9.60;2.50;;;;;;;17.31;53.54;100602.47;104682;1265;65835;-50
2023/06/12 07:54:12;;;;;;;7.40;2.00;;;;;;;17.33;53.41;100601.33;104450;1270;60256;-50
2023/06/12 07:56:41;;;;;;;5.90;2.30;;;;;;;17.37;53.34;100602.46;104593;1270;64248;-50
2023/06/12 07:59:10;;;;;;;7.80;2.00;;;;;;;17.40;53.09;100601.14;104479;1265;59763;-49
2023/06/12 08:01:45;;;;;;;8.50;2.00;;;;;;;17.42;53.35;100601.73;104454;1265;59669;-51
2023/06/12 08:04:16;;;;;;;6.70;2.40;;;;;;;17.47;53.34;100600.77;104444;1265;66341;-50
2023/06/12 08:06:47;;;;;;;6.20;2.20;;;;;;;17.53;53.02;100601.11;104628;1264;70105;-54
2023/06/12 08:09:17;;;;;;;5.80;2.00;;;;;;;17.58;52.33;100601.64;104635;1265;63720;-50
2023/06/12 08:11:45;;;;;;;6.90;2.10;;;;;;;17.61;52.47;100605.04;104669;1265;59879;-51
2023/06/12 08:14:13;;;;;;;6.10;2.20;;;;;;;17.66;52.60;100606.39;104716;1265;59715;-50
2023/06/12 08:16:41;;;;;;;4.50;1.80;;;;;;;17.69;52.13;100606.56;104578;1265;64150;-50
2023/06/12 08:19:10;;;;;;;6.60;1.70;;;;;;;17.70;52.11;100607.14;104537;1264;61554;-50
2023/06/12 08:21:39;;;;;;;8.10;2.60;;;;;;;17.72;52.06;100604.70;104617;1268;63775;-49
2023/06/12 08:24:09;;;;;;;5.10;2.50;;;;;;;17.72;52.13;100604.98;104656;1265;59767;-50
2023/06/12 08:26:37;;;;;;;4.40;1.90;;;;;;;17.75;52.34;100606.66;104681;1270;59946;-53
2023/06/12 08:29:05;;;;;;;6.70;2.10;;;;;;;17.84;52.54;100604.65;104527;1266;64175;-49
2023/06/12 08:31:37;;;;;;;4.90;2.10;;;;;;;17.97;52.36;100599.16;104534;1270;60454;-51
2023/06/12 08:34:05;;;;;;;7.00;1.80;;;;;;;18.08;52.31;100596.00;104608;1266;63796;-52
2023/06/12 08:36:35;;;;;;;4.70;1.90;;;;;;;18.15;52.37;100592.74;104490;1265;59751;-50
2023/06/12 08:39:04;;;;;;;7.10;2.10;;;;;;;18.25;52.69;100587.24;104613;1268;59656;-51
2023/06/12 08:41:34;;;;;;;5.50;2.20;;;;;;;18.42;52.47;100587.85;104490;1265;63336;-48
2023/06/12 08:44:02;;;;;;;9.00;2.20;;;;;;;18.56;51.86;100590.23;104558;1265;61380;-50
2023/06/12 08:46:39;;;;;;;5.50;2.30;;;;;;;18.66;51.97;100587.73;104414;1267;63705;-50
2023/06/12 08:49:09;;;;;;;6.30;2.60;;;;;;;18.74;51.87;100589.52;104507;1268;59534;-50
2023/06/12 08:51:37;;;;;;;4.10;1.90;;;;;;;18.79;51.37;100584.50;104870;1267;60375;-51
2023/06/12 08:54:06;;;;;;;8.40;2.20;;;;;;;18.83;51.38;100584.41;104545;1268;64502;-50
2023/06/12 08:56:33;;;;;;;5.50;2.50;;;;;;;18.85;51.32;100588.91;104676;1265;61720;-50
2023/06/12 08:59:03;;;;;;;6.30;2.50;;;;;;;18.80;51.56;100585.15;104567;1271;73707;-50
2023/06/12 09:01:31;;;;;;;5.70;2.50;;;;;;;18.71;51.41;100582.02;104531;1265;59650;-50
2023/06/12 09:04:00;;;;;;;5.00;2.00;;;;;;;18.58;51.48;100584.49;104684;1264;59706;-52
2023/06/12 09:06:29;;;;;;;5.10;2.30;;;;;;;18.47;52.05;100588.58;104532;1265;65937;-51
2023/06/12 09:08:58;;;;;;;4.10;2.10;;;;;;;18.37;52.61;100588.95;104642;1271;61997;-50
2023/06/12 09:11:27;;;;;;;4.40;1.90;;;;;;;18.31;52.57;100596.00;104705;1265;63869;-50
2023/06/12 09:13:55;;;;;;;5.80;1.80;;;;;;;18.27;52.92;100596.09;104605;1265;61019;-50
2023/06/12 09:16:24;;;;;;;9.70;1.90;;;;;;;18.23;53.41;100592.77;104675;1268;60452;-50
2023/06/12 09:18:52;;;;;;;4.80;1.90;;;;;;;18.25;53.48;100594.56;104770;1264;64921;-50
2023/06/12 09:21:23;;;;;;;6.80;2.00;;;;;;;18.25;53.69;100598.42;104601;1265;61468;-48
2023/06/12 09:23:52;;;;;;;4.90;1.80;;;;;;;18.25;53.52;100601.13;104778;1268;62525;-50
2023/06/12 09:26:21;;;;;;;5.70;1.90;;;;;;;18.23;53.26;100601.73;104706;1266;60608;-50
2023/06/12 09:28:53;;;;;;;4.70;2.20;;;;;;;18.20;53.78;100597.86;104565;1271;60458;-50
2023/06/12 09:31:21;;;;;;;3.80;1.40;;;;;;;18.19;54.15;100600.52;104491;1265;63699;-50
2023/06/12 09:33:52;;;;;;;5.80;2.20;;;;;;;18.17;54.22;100603.73;104572;1265;62563;-50
2023/06/12 09:36:20;;;;;;;4.60;1.80;;;;;;;18.14;54.11;100610.08;104692;1265;62877;-50
2023/06/12 09:39:15;;;;;;;5.60;1.80;;;;;;;18.10;54.56;100612.45;104428;1265;60559;-48
2023/06/12 09:41:49;;;;;;;5.70;1.90;;;;;;;18.07;54.58;100616.21;104703;1265;60486;-50
2023/06/12 09:44:20;;;;;;;5.30;1.90;;;;;;;18.03;54.35;100615.18;104490;1265;65054;-51
2023/06/12 09:46:52;;;;;;;8.10;2.00;;;;;;;18.00;54.45;100614.77;104716;1265;61544;-50
2023/06/12 09:49:23;;;;;;;4.30;2.10;;;;;;;17.96;54.50;100621.77;104550;1270;62526;-49
2023/06/12 09:51:51;;;;;;;7.50;2.30;;;;;;;17.89;54.25;100626.47;104692;1268;60452;-50
2023/06/12 09:54:21;;;;;;;10.40;2.30;;;;;;;17.79;54.55;100626.42;104468;1265;63223;-49
2023/06/12 09:56:53;;;;;;;7.00;2.00;;;;;;;17.68;55.12;100626.15;104523;1270;64942;-51
2023/06/12 09:59:22;;;;;;;7.00;2.10;;;;;;;17.56;55.29;100621.27;104492;1268;61485;-51
2023/06/12 10:01:51;;;;;;;5.00;2.10;;;;;;;17.43;55.35;100620.31;104530;1269;63708;-51
2023/06/12 10:04:37;;;;;;;5.30;2.20;;;;;;;17.33;55.51;100623.52;104540;1266;60643;-51
2023/06/12 10:07:14;;;;;;;7.90;1.70;;;;;;;17.29;56.03;100626.56;104886;1271;60330;-50
2023/06/12 10:09:45;;;;;;;4.30;1.80;;;;;;;17.33;56.30;100626.55;104560;1266;63689;-49
2023/06/12 10:12:13;;;;;;;9.00;1.90;;;;;;;17.38;56.51;100633.73;104613;1265;61984;-50
2023/06/12 10:14:40;;;;;;;6.50;1.80;;;;;;;17.42;56.40;100628.91;104450;1266;63719;-50
2023/06/12 10:17:08;;;;;;;5.50;2.10;;;;;;;17.46;56.21;100627.63;104484;1265;60587;-51
2023/06/12 10:19:35;;;;;;;8.00;1.90;;;;;;;17.51;55.97;100626.41;104547;1268;60513;-50
2023/06/12 10:22:03;;;;;;;4.70;1.90;;;;;;;17.56;55.79;100622.08;104371;1273;73819;-50
2023/06/12 10:24:31;;;;;;;4.90;1.90;;;;;;;17.62;55.28;100616.12;104492;1265;61810;-50
2023/06/12 10:26:58;;;;;;;4.80;2.20;;;;;;;17.67;54.83;100615.14;104475;1265;63906;-49
2023/06/12 10:29:27;;;;;;;4.80;2.20;;;;;;;17.73;54.68;100615.58;104514;1265;60479;-50
2023/06/12 10:32:05;;;;;;;5.80;2.30;;;;;;;17.76;54.37;100615.74;104654;1263;60533;-49
2023/06/12 10:34:43;;;;;;;5.10;2.20;;;;;;;17.75;53.73;100618.51;105151;1270;63631;-51
2023/06/12 10:37:31;;;;;;;5.10;2.40;;;;;;;17.71;53.87;100620.33;104612;1265;61324;-50
2023/06/12 10:40:02;;;;;;;6.90;2.60;;;;;;;17.67;54.17;100619.33;105097;1266;64229;-51
2023/06/12 10:42:52;;;;;;;7.20;2.50;;;;;;;17.63;53.88;100618.91;104512;1264;61165;-50
2023/06/12 10:45:23;;;;;;;9.70;3.00;;;;;;;17.59;54.58;100620.88;104421;1263;60534;-51
2023/06/12 10:48:06;;;;;;;6.90;2.40;;;;;;;17.64;54.63;100622.95;104501;1269;65124;-49
2023/06/12 10:50:35;;;;;;;6.00;2.80;;;;;;;17.68;54.47;100616.30;104667;1265;61381;-50
2023/06/12 10:53:07;;;;;;;6.40;2.30;;;;;;;17.71;54.71;100614.71;104629;1266;63728;-48
2023/06/12 10:55:36;;;;;;;4.70;2.30;;;;;;;17.74;54.64;100615.39;104623;1265;62081;-50
2023/06/12 10:58:05;;;;;;;7.80;2.70;;;;;;;17.78;54.88;100616.95;104736;1265;60460;-49
2023/06/12 11:00:37;;;;;;;6.10;2.80;;;;;;;17.81;54.56;100617.00;104575;1264;65040;-50
2023/06/12 11:03:06;;;;;;;5.40;2.40;;;;;;;17.81;54.26;100615.77;104663;1269;60444;-51
2023/06/12 11:05:34;;;;;;;9.20;3.30;;;;;;;17.82;54.18;100613.30;104430;1265;64477;-50
2023/06/12 11:08:03;;;;;;;7.00;2.80;;;;;;;17.84;54.23;100612.43;105432;1265;60438;-52
2023/06/12 11:10:32;;;;;;;6.90;2.60;;;;;;;17.84;54.02;100610.80;104554;1266;60583;-51
2023/06/12 11:12:59;;;;;;;5.90;2.70;;;;;;;17.84;54.34;100609.90;104566;1265;64908;-51
2023/06/12 11:15:27;;;;;;;6.70;2.70;;;;;;;17.87;54.46;100609.66;104488;1270;61535;-50
2023/06/12 11:17:55;;;;;;;6.00;2.80;;;;;;;17.93;54.26;100610.44;104483;1265;65946;-52
2023/06/12 11:20:23;;;;;;;7.50;2.70;;;;;;;17.97;54.46;100610.29;104638;1263;60513;-55
2023/06/12 11:23:03;;;;;;;6.30;2.10;;;;;;;18.00;54.28;100608.99;105291;1268;60364;-50
2023/06/12 11:25:49;;;;;;;5.10;2.10;;;;;;;18.03;54.38;100609.18;104567;1270;65036;-50
2023/06/12 11:28:16;;;;;;;5.20;2.70;;;;;;;18.04;54.45;100611.22;104549;1266;61325;-51
2023/06/12 11:30:57;;;;;;;8.10;2.70;;;;;;;18.04;54.80;100616.55;104414;1265;66027;-51
2023/06/12 11:33:38;;;;;;;5.10;2.40;;;;;;;18.06;55.20;100617.60;104532;1268;60446;-48
2023/06/12 11:36:06;;;;;;;6.20;3.00;;;;;;;18.08;55.12;100618.23;104597;1271;60448;-51
2023/06/12 11:38:34;;;;;;;4.50;1.80;;;;;;;18.06;54.45;100614.52;104617;1268;67592;-49